sensor_id;sensor_type;location;lat;lon;timestamp;P1;durP1;ratioP1;P2;durP2;ratioP2
24407;SDS011;12542;50.924;4.516;2023-03-03T00:01:12;31.38;;;15.90;;
24407;SDS011;12542;50.924;4.516;2023-03-03T00:03:41;34.50;;;16.17;;
24407;SDS011;12542;50.924;4.516;2023-03-03T00:06:12;29.10;;;14.65;;
24407;SDS011;12542;50.924;4.516;2023-03-03T00:08:39;30.50;;;15.63;;
24407;SDS011;12542;50.924;4.516;2023-03-03T00:11:05;30.65;;;15.43;;
24407;SDS011;12542;50.924;4.516;2023-03-03T00:13:32;33.40;;;16.50;;
24407;SDS011;12542;50.924;4.516;2023-03-03T00:16:29;31.30;;;15.10;;
24407;SDS011;12542;50.924;4.516;2023-03-03T00:18:59;34.28;;;16.10;;
24407;SDS011;12542;50.924;4.516;2023-03-03T00:21:27;34.13;;;15.98;;
24407;SDS011;12542;50.924;4.516;2023-03-03T00:24:19;30.33;;;15.35;;
24407;SDS011;12542;50.924;4.516;2023-03-03T00:26:50;35.35;;;16.40;;
24407;SDS011;12542;50.924;4.516;2023-03-03T00:29:30;30.15;;;15.38;;
24407;SDS011;12542;50.924;4.516;2023-03-03T00:35:27;31.45;;;15.98;;
24407;SDS011;12542;50.924;4.516;2023-03-03T00:37:55;35.20;;;18.20;;
24407;SDS011;12542;50.924;4.516;2023-03-03T00:40:30;35.70;;;17.17;;
24407;SDS011;12542;50.924;4.516;2023-03-03T00:43:00;33.90;;;17.48;;
24407;SDS011;12542;50.924;4.516;2023-03-03T00:47:52;34.20;;;16.10;;
24407;SDS011;12542;50.924;4.516;2023-03-03T00:50:24;32.65;;;16.20;;
24407;SDS011;12542;50.924;4.516;2023-03-03T00:52:56;26.75;;;13.48;;
24407;SDS011;12542;50.924;4.516;2023-03-03T00:55:26;23.98;;;11.70;;
24407;SDS011;12542;50.924;4.516;2023-03-03T00:57:54;32.22;;;15.93;;
24407;SDS011;12542;50.924;4.516;2023-03-03T01:00:20;41.75;;;20.05;;
24407;SDS011;12542;50.924;4.516;2023-03-03T01:02:46;37.97;;;18.98;;
24407;SDS011;12542;50.924;4.516;2023-03-03T01:05:12;55.60;;;25.48;;
24407;SDS011;12542;50.924;4.516;2023-03-03T01:07:40;32.67;;;17.25;;
24407;SDS011;12542;50.924;4.516;2023-03-03T01:10:06;34.17;;;17.98;;
24407;SDS011;12542;50.924;4.516;2023-03-03T01:12:33;34.70;;;18.15;;
24407;SDS011;12542;50.924;4.516;2023-03-03T01:15:00;33.28;;;16.17;;
24407;SDS011;12542;50.924;4.516;2023-03-03T01:17:26;29.60;;;15.68;;
24407;SDS011;12542;50.924;4.516;2023-03-03T01:19:53;27.60;;;15.38;;
24407;SDS011;12542;50.924;4.516;2023-03-03T01:22:18;30.83;;;15.32;;
24407;SDS011;12542;50.924;4.516;2023-03-03T01:24:44;31.70;;;15.88;;
24407;SDS011;12542;50.924;4.516;2023-03-03T01:27:10;34.00;;;14.73;;
24407;SDS011;12542;50.924;4.516;2023-03-03T01:29:35;33.17;;;16.08;;
24407;SDS011;12542;50.924;4.516;2023-03-03T01:32:01;30.00;;;14.68;;
24407;SDS011;12542;50.924;4.516;2023-03-03T01:34:27;31.50;;;14.20;;
24407;SDS011;12542;50.924;4.516;2023-03-03T01:36:53;32.97;;;15.18;;
24407;SDS011;12542;50.924;4.516;2023-03-03T01:39:18;33.78;;;15.27;;
24407;SDS011;12542;50.924;4.516;2023-03-03T01:41:44;34.95;;;16.42;;
24407;SDS011;12542;50.924;4.516;2023-03-03T01:44:13;31.70;;;15.57;;
24407;SDS011;12542;50.924;4.516;2023-03-03T01:46:41;31.48;;;15.65;;
24407;SDS011;12542;50.924;4.516;2023-03-03T01:49:21;32.95;;;16.58;;
24407;SDS011;12542;50.924;4.516;2023-03-03T01:51:55;35.40;;;16.95;;
24407;SDS011;12542;50.924;4.516;2023-03-03T01:54:37;31.27;;;15.98;;
24407;SDS011;12542;50.924;4.516;2023-03-03T01:57:09;33.20;;;16.00;;
24407;SDS011;12542;50.924;4.516;2023-03-03T01:59:44;32.13;;;16.25;;
24407;SDS011;12542;50.924;4.516;2023-03-03T02:02:16;34.45;;;16.92;;
24407;SDS011;12542;50.924;4.516;2023-03-03T02:04:44;36.15;;;17.20;;
24407;SDS011;12542;50.924;4.516;2023-03-03T02:07:10;33.95;;;17.40;;
24407;SDS011;12542;50.924;4.516;2023-03-03T02:15:27;33.42;;;16.40;;
24407;SDS011;12542;50.924;4.516;2023-03-03T02:17:58;34.17;;;17.17;;
24407;SDS011;12542;50.924;4.516;2023-03-03T02:30:38;34.80;;;16.02;;
24407;SDS011;12542;50.924;4.516;2023-03-03T02:33:04;32.78;;;17.15;;
24407;SDS011;12542;50.924;4.516;2023-03-03T02:35:32;35.50;;;15.93;;
24407;SDS011;12542;50.924;4.516;2023-03-03T02:41:23;35.22;;;18.17;;
24407;SDS011;12542;50.924;4.516;2023-03-03T02:46:28;38.28;;;18.60;;
24407;SDS011;12542;50.924;4.516;2023-03-03T02:49:01;36.35;;;17.40;;
24407;SDS011;12542;50.924;4.516;2023-03-03T02:51:32;46.35;;;18.75;;
24407;SDS011;12542;50.924;4.516;2023-03-03T02:53:58;38.53;;;17.95;;
24407;SDS011;12542;50.924;4.516;2023-03-03T02:56:24;39.00;;;18.13;;
24407;SDS011;12542;50.924;4.516;2023-03-03T02:58:50;37.88;;;17.70;;
24407;SDS011;12542;50.924;4.516;2023-03-03T03:01:16;33.88;;;17.20;;
24407;SDS011;12542;50.924;4.516;2023-03-03T03:03:44;44.17;;;19.60;;
24407;SDS011;12542;50.924;4.516;2023-03-03T03:06:10;47.65;;;21.42;;
24407;SDS011;12542;50.924;4.516;2023-03-03T03:08:35;47.28;;;21.38;;
24407;SDS011;12542;50.924;4.516;2023-03-03T03:11:02;44.53;;;20.52;;
24407;SDS011;12542;50.924;4.516;2023-03-03T03:13:29;50.30;;;22.58;;
24407;SDS011;12542;50.924;4.516;2023-03-03T03:15:56;53.72;;;22.42;;
24407;SDS011;12542;50.924;4.516;2023-03-03T03:18:23;58.70;;;25.73;;
24407;SDS011;12542;50.924;4.516;2023-03-03T03:20:49;54.08;;;23.75;;
24407;SDS011;12542;50.924;4.516;2023-03-03T03:23:15;54.63;;;22.92;;
24407;SDS011;12542;50.924;4.516;2023-03-03T03:25:41;57.47;;;24.55;;
24407;SDS011;12542;50.924;4.516;2023-03-03T03:28:14;54.63;;;23.58;;
24407;SDS011;12542;50.924;4.516;2023-03-03T03:30:43;48.60;;;23.25;;
24407;SDS011;12542;50.924;4.516;2023-03-03T03:33:09;46.50;;;22.10;;
24407;SDS011;12542;50.924;4.516;2023-03-03T03:35:35;61.90;;;25.42;;
24407;SDS011;12542;50.924;4.516;2023-03-03T03:38:01;53.85;;;24.38;;
24407;SDS011;12542;50.924;4.516;2023-03-03T03:40:27;51.72;;;22.75;;
24407;SDS011;12542;50.924;4.516;2023-03-03T03:42:53;49.85;;;23.00;;
24407;SDS011;12542;50.924;4.516;2023-03-03T03:45:20;56.35;;;23.45;;
24407;SDS011;12542;50.924;4.516;2023-03-03T03:47:46;55.30;;;22.10;;
24407;SDS011;12542;50.924;4.516;2023-03-03T03:50:13;57.55;;;24.13;;
24407;SDS011;12542;50.924;4.516;2023-03-03T03:52:39;53.83;;;22.70;;
24407;SDS011;12542;50.924;4.516;2023-03-03T03:55:04;50.88;;;22.95;;
24407;SDS011;12542;50.924;4.516;2023-03-03T03:57:31;53.47;;;24.67;;
24407;SDS011;12542;50.924;4.516;2023-03-03T03:59:57;60.17;;;23.80;;
24407;SDS011;12542;50.924;4.516;2023-03-03T04:02:22;57.78;;;24.27;;
24407;SDS011;12542;50.924;4.516;2023-03-03T04:04:48;58.63;;;25.30;;
24407;SDS011;12542;50.924;4.516;2023-03-03T04:07:14;52.28;;;23.90;;
24407;SDS011;12542;50.924;4.516;2023-03-03T04:09:42;61.75;;;25.38;;
24407;SDS011;12542;50.924;4.516;2023-03-03T04:12:08;61.25;;;24.52;;
24407;SDS011;12542;50.924;4.516;2023-03-03T04:14:33;52.70;;;23.45;;
24407;SDS011;12542;50.924;4.516;2023-03-03T04:16:59;53.25;;;22.95;;
24407;SDS011;12542;50.924;4.516;2023-03-03T04:19:25;52.97;;;21.98;;
24407;SDS011;12542;50.924;4.516;2023-03-03T04:21:51;49.92;;;22.10;;
24407;SDS011;12542;50.924;4.516;2023-03-03T04:24:17;58.17;;;23.30;;
24407;SDS011;12542;50.924;4.516;2023-03-03T04:26:43;55.75;;;23.35;;
24407;SDS011;12542;50.924;4.516;2023-03-03T04:29:09;54.65;;;23.70;;
24407;SDS011;12542;50.924;4.516;2023-03-03T04:31:35;55.67;;;23.05;;
24407;SDS011;12542;50.924;4.516;2023-03-03T04:34:00;55.33;;;24.85;;
24407;SDS011;12542;50.924;4.516;2023-03-03T04:36:26;58.55;;;25.13;;
24407;SDS011;12542;50.924;4.516;2023-03-03T04:38:52;51.83;;;22.80;;
24407;SDS011;12542;50.924;4.516;2023-03-03T04:41:18;59.13;;;23.70;;
24407;SDS011;12542;50.924;4.516;2023-03-03T04:43:44;54.85;;;24.15;;
24407;SDS011;12542;50.924;4.516;2023-03-03T04:46:09;51.20;;;21.75;;
24407;SDS011;12542;50.924;4.516;2023-03-03T04:48:35;57.33;;;23.42;;
24407;SDS011;12542;50.924;4.516;2023-03-03T04:51:03;52.13;;;23.17;;
24407;SDS011;12542;50.924;4.516;2023-03-03T04:53:29;54.58;;;24.00;;
24407;SDS011;12542;50.924;4.516;2023-03-03T04:55:54;58.78;;;23.38;;
24407;SDS011;12542;50.924;4.516;2023-03-03T04:58:20;45.35;;;21.05;;
24407;SDS011;12542;50.924;4.516;2023-03-03T05:00:54;52.85;;;23.70;;
24407;SDS011;12542;50.924;4.516;2023-03-03T05:03:22;53.30;;;23.35;;
24407;SDS011;12542;50.924;4.516;2023-03-03T05:05:51;51.75;;;21.52;;
24407;SDS011;12542;50.924;4.516;2023-03-03T05:08:17;51.17;;;22.42;;
24407;SDS011;12542;50.924;4.516;2023-03-03T05:10:43;48.70;;;20.02;;
24407;SDS011;12542;50.924;4.516;2023-03-03T05:13:09;53.80;;;22.13;;
24407;SDS011;12542;50.924;4.516;2023-03-03T05:15:35;50.20;;;21.92;;
24407;SDS011;12542;50.924;4.516;2023-03-03T05:18:01;44.38;;;20.45;;
24407;SDS011;12542;50.924;4.516;2023-03-03T05:20:27;44.85;;;20.40;;
24407;SDS011;12542;50.924;4.516;2023-03-03T05:22:53;46.90;;;21.40;;
24407;SDS011;12542;50.924;4.516;2023-03-03T05:25:19;44.40;;;19.02;;
24407;SDS011;12542;50.924;4.516;2023-03-03T05:27:45;49.65;;;21.58;;
24407;SDS011;12542;50.924;4.516;2023-03-03T05:30:11;47.03;;;21.95;;
24407;SDS011;12542;50.924;4.516;2023-03-03T05:32:37;42.95;;;20.60;;
24407;SDS011;12542;50.924;4.516;2023-03-03T05:35:04;40.92;;;19.08;;
24407;SDS011;12542;50.924;4.516;2023-03-03T05:37:31;43.45;;;19.80;;
24407;SDS011;12542;50.924;4.516;2023-03-03T05:39:59;43.35;;;20.20;;
24407;SDS011;12542;50.924;4.516;2023-03-03T05:42:24;43.70;;;20.85;;
24407;SDS011;12542;50.924;4.516;2023-03-03T05:44:50;45.05;;;19.83;;
24407;SDS011;12542;50.924;4.516;2023-03-03T05:47:16;40.35;;;18.23;;
24407;SDS011;12542;50.924;4.516;2023-03-03T05:49:42;47.05;;;20.45;;
24407;SDS011;12542;50.924;4.516;2023-03-03T05:52:07;43.75;;;20.55;;
24407;SDS011;12542;50.924;4.516;2023-03-03T05:54:33;41.53;;;20.15;;
24407;SDS011;12542;50.924;4.516;2023-03-03T05:56:59;39.08;;;19.60;;
24407;SDS011;12542;50.924;4.516;2023-03-03T05:59:25;50.88;;;21.08;;
24407;SDS011;12542;50.924;4.516;2023-03-03T06:01:53;41.03;;;20.48;;
24407;SDS011;12542;50.924;4.516;2023-03-03T06:04:19;49.22;;;21.65;;
24407;SDS011;12542;50.924;4.516;2023-03-03T06:06:45;42.17;;;19.67;;
24407;SDS011;12542;50.924;4.516;2023-03-03T06:09:10;43.33;;;18.23;;
24407;SDS011;12542;50.924;4.516;2023-03-03T06:11:39;41.38;;;18.92;;
24407;SDS011;12542;50.924;4.516;2023-03-03T06:14:04;44.72;;;21.25;;
24407;SDS011;12542;50.924;4.516;2023-03-03T06:16:32;44.60;;;20.10;;
24407;SDS011;12542;50.924;4.516;2023-03-03T06:18:58;44.95;;;20.45;;
24407;SDS011;12542;50.924;4.516;2023-03-03T06:21:24;40.53;;;19.42;;
24407;SDS011;12542;50.924;4.516;2023-03-03T06:23:50;52.53;;;21.70;;
24407;SDS011;12542;50.924;4.516;2023-03-03T06:26:16;46.03;;;21.13;;
24407;SDS011;12542;50.924;4.516;2023-03-03T06:28:42;46.80;;;20.70;;
24407;SDS011;12542;50.924;4.516;2023-03-03T06:31:07;46.17;;;20.77;;
24407;SDS011;12542;50.924;4.516;2023-03-03T06:33:33;42.65;;;20.42;;
24407;SDS011;12542;50.924;4.516;2023-03-03T06:35:59;44.55;;;20.48;;
24407;SDS011;12542;50.924;4.516;2023-03-03T06:38:25;41.72;;;18.80;;
24407;SDS011;12542;50.924;4.516;2023-03-03T06:40:50;43.03;;;20.70;;
24407;SDS011;12542;50.924;4.516;2023-03-03T06:43:16;41.17;;;19.73;;
24407;SDS011;12542;50.924;4.516;2023-03-03T06:45:43;43.72;;;19.65;;
24407;SDS011;12542;50.924;4.516;2023-03-03T06:48:09;40.88;;;18.38;;
24407;SDS011;12542;50.924;4.516;2023-03-03T06:50:35;43.67;;;19.73;;
24407;SDS011;12542;50.924;4.516;2023-03-03T06:53:09;44.78;;;19.25;;
24407;SDS011;12542;50.924;4.516;2023-03-03T06:55:39;42.15;;;20.38;;
24407;SDS011;12542;50.924;4.516;2023-03-03T06:58:11;47.42;;;20.67;;
24407;SDS011;12542;50.924;4.516;2023-03-03T07:00:41;38.70;;;18.95;;
24407;SDS011;12542;50.924;4.516;2023-03-03T07:03:13;47.00;;;19.65;;
24407;SDS011;12542;50.924;4.516;2023-03-03T07:05:41;48.55;;;22.02;;
24407;SDS011;12542;50.924;4.516;2023-03-03T07:08:18;43.22;;;20.02;;
24407;SDS011;12542;50.924;4.516;2023-03-03T07:10:45;49.42;;;20.08;;
24407;SDS011;12542;50.924;4.516;2023-03-03T07:13:16;45.05;;;21.10;;
24407;SDS011;12542;50.924;4.516;2023-03-03T07:15:46;47.53;;;20.15;;
24407;SDS011;12542;50.924;4.516;2023-03-03T07:18:24;44.15;;;19.63;;
24407;SDS011;12542;50.924;4.516;2023-03-03T07:20:56;43.67;;;19.13;;
24407;SDS011;12542;50.924;4.516;2023-03-03T07:25:50;42.85;;;18.50;;
24407;SDS011;12542;50.924;4.516;2023-03-03T07:28:27;47.63;;;19.25;;
24407;SDS011;12542;50.924;4.516;2023-03-03T07:30:58;50.53;;;19.70;;
24407;SDS011;12542;50.924;4.516;2023-03-03T07:33:25;45.20;;;19.50;;
24407;SDS011;12542;50.924;4.516;2023-03-03T07:35:54;50.70;;;20.55;;
24407;SDS011;12542;50.924;4.516;2023-03-03T07:38:28;51.15;;;20.67;;
24407;SDS011;12542;50.924;4.516;2023-03-03T07:41:04;52.40;;;20.63;;
24407;SDS011;12542;50.924;4.516;2023-03-03T07:43:51;48.13;;;20.13;;
24407;SDS011;12542;50.924;4.516;2023-03-03T07:46:21;46.35;;;19.23;;
24407;SDS011;12542;50.924;4.516;2023-03-03T07:48:47;41.05;;;19.80;;
24407;SDS011;12542;50.924;4.516;2023-03-03T07:51:22;49.00;;;20.13;;
24407;SDS011;12542;50.924;4.516;2023-03-03T07:54:13;51.88;;;20.73;;
24407;SDS011;12542;50.924;4.516;2023-03-03T07:56:50;47.97;;;18.10;;
24407;SDS011;12542;50.924;4.516;2023-03-03T07:59:24;46.10;;;17.50;;
24407;SDS011;12542;50.924;4.516;2023-03-03T08:04:35;38.22;;;15.30;;
24407;SDS011;12542;50.924;4.516;2023-03-03T08:07:13;35.20;;;14.93;;
24407;SDS011;12542;50.924;4.516;2023-03-03T08:14:42;35.03;;;15.45;;
24407;SDS011;12542;50.924;4.516;2023-03-03T08:17:24;38.33;;;15.85;;
24407;SDS011;12542;50.924;4.516;2023-03-03T08:19:59;33.35;;;15.30;;
24407;SDS011;12542;50.924;4.516;2023-03-03T08:22:30;42.67;;;16.23;;
24407;SDS011;12542;50.924;4.516;2023-03-03T08:25:00;36.15;;;16.98;;
24407;SDS011;12542;50.924;4.516;2023-03-03T08:27:26;37.80;;;15.52;;
24407;SDS011;12542;50.924;4.516;2023-03-03T08:29:52;38.28;;;16.33;;
24407;SDS011;12542;50.924;4.516;2023-03-03T08:32:17;36.03;;;15.82;;
24407;SDS011;12542;50.924;4.516;2023-03-03T08:34:43;39.55;;;15.85;;
24407;SDS011;12542;50.924;4.516;2023-03-03T08:37:09;37.00;;;15.00;;
24407;SDS011;12542;50.924;4.516;2023-03-03T08:39:35;35.47;;;15.85;;
24407;SDS011;12542;50.924;4.516;2023-03-03T08:42:01;32.95;;;15.90;;
24407;SDS011;12542;50.924;4.516;2023-03-03T08:49:55;40.10;;;16.35;;
24407;SDS011;12542;50.924;4.516;2023-03-03T08:52:22;37.33;;;16.17;;
24407;SDS011;12542;50.924;4.516;2023-03-03T08:54:48;37.22;;;16.88;;
24407;SDS011;12542;50.924;4.516;2023-03-03T08:57:15;42.20;;;16.25;;
24407;SDS011;12542;50.924;4.516;2023-03-03T08:59:46;35.05;;;16.05;;
24407;SDS011;12542;50.924;4.516;2023-03-03T09:02:19;35.20;;;14.40;;
24407;SDS011;12542;50.924;4.516;2023-03-03T09:04:45;30.63;;;14.65;;
24407;SDS011;12542;50.924;4.516;2023-03-03T09:07:11;37.33;;;15.88;;
24407;SDS011;12542;50.924;4.516;2023-03-03T09:09:37;35.08;;;15.02;;
24407;SDS011;12542;50.924;4.516;2023-03-03T09:12:12;31.95;;;13.88;;
24407;SDS011;12542;50.924;4.516;2023-03-03T09:14:39;34.47;;;14.30;;
24407;SDS011;12542;50.924;4.516;2023-03-03T09:17:11;42.85;;;14.07;;
24407;SDS011;12542;50.924;4.516;2023-03-03T09:22:20;38.50;;;14.05;;
24407;SDS011;12542;50.924;4.516;2023-03-03T09:24:48;36.03;;;13.90;;
24407;SDS011;12542;50.924;4.516;2023-03-03T09:27:21;35.60;;;14.60;;
24407;SDS011;12542;50.924;4.516;2023-03-03T09:29:48;30.15;;;12.52;;
24407;SDS011;12542;50.924;4.516;2023-03-03T09:32:20;38.33;;;14.27;;
24407;SDS011;12542;50.924;4.516;2023-03-03T09:35:00;41.33;;;15.60;;
24407;SDS011;12542;50.924;4.516;2023-03-03T09:37:50;36.65;;;14.77;;
24407;SDS011;12542;50.924;4.516;2023-03-03T09:57:29;44.13;;;16.48;;
24407;SDS011;12542;50.924;4.516;2023-03-03T10:00:08;37.67;;;16.52;;
24407;SDS011;12542;50.924;4.516;2023-03-03T10:08:26;39.38;;;13.98;;
24407;SDS011;12542;50.924;4.516;2023-03-03T10:21:50;34.95;;;14.88;;
24407;SDS011;12542;50.924;4.516;2023-03-03T10:32:46;43.25;;;16.65;;
24407;SDS011;12542;50.924;4.516;2023-03-03T10:40:32;39.88;;;14.70;;
24407;SDS011;12542;50.924;4.516;2023-03-03T10:45:44;42.17;;;18.02;;
24407;SDS011;12542;50.924;4.516;2023-03-03T10:49:08;40.15;;;16.20;;
24407;SDS011;12542;50.924;4.516;2023-03-03T11:08:03;36.60;;;15.15;;
24407;SDS011;12542;50.924;4.516;2023-03-03T11:34:04;29.47;;;13.30;;
24407;SDS011;12542;50.924;4.516;2023-03-03T11:37:01;28.35;;;13.30;;
24407;SDS011;12542;50.924;4.516;2023-03-03T11:39:32;26.83;;;12.27;;
24407;SDS011;12542;50.924;4.516;2023-03-03T11:42:05;30.67;;;12.82;;
24407;SDS011;12542;50.924;4.516;2023-03-03T11:44:34;29.13;;;11.50;;
24407;SDS011;12542;50.924;4.516;2023-03-03T11:47:12;30.92;;;12.43;;
24407;SDS011;12542;50.924;4.516;2023-03-03T11:49:56;26.95;;;12.20;;
24407;SDS011;12542;50.924;4.516;2023-03-03T11:55:30;35.13;;;15.63;;
24407;SDS011;12542;50.924;4.516;2023-03-03T11:58:19;32.47;;;13.93;;
24407;SDS011;12542;50.924;4.516;2023-03-03T12:01:22;34.00;;;15.32;;
24407;SDS011;12542;50.924;4.516;2023-03-03T12:04:03;29.25;;;14.10;;
24407;SDS011;12542;50.924;4.516;2023-03-03T12:28:04;28.23;;;12.35;;
24407;SDS011;12542;50.924;4.516;2023-03-03T12:33:44;25.25;;;11.82;;
24407;SDS011;12542;50.924;4.516;2023-03-03T12:44:25;26.75;;;11.63;;
24407;SDS011;12542;50.924;4.516;2023-03-03T12:47:21;28.65;;;12.32;;
24407;SDS011;12542;50.924;4.516;2023-03-03T13:01:01;27.80;;;13.02;;
24407;SDS011;12542;50.924;4.516;2023-03-03T13:11:26;23.55;;;10.98;;
24407;SDS011;12542;50.924;4.516;2023-03-03T13:14:09;22.95;;;11.27;;
24407;SDS011;12542;50.924;4.516;2023-03-03T13:16:43;19.95;;;9.43;;
24407;SDS011;12542;50.924;4.516;2023-03-03T13:19:37;23.90;;;10.38;;
24407;SDS011;12542;50.924;4.516;2023-03-03T13:27:44;26.33;;;11.90;;
24407;SDS011;12542;50.924;4.516;2023-03-03T13:30:16;27.05;;;12.20;;
24407;SDS011;12542;50.924;4.516;2023-03-03T13:38:24;25.00;;;11.95;;
24407;SDS011;12542;50.924;4.516;2023-03-03T13:43:56;29.20;;;12.88;;
24407;SDS011;12542;50.924;4.516;2023-03-03T13:49:06;28.15;;;12.93;;
24407;SDS011;12542;50.924;4.516;2023-03-03T13:57:50;25.70;;;10.95;;
24407;SDS011;12542;50.924;4.516;2023-03-03T14:06:01;25.45;;;11.82;;
24407;SDS011;12542;50.924;4.516;2023-03-03T14:11:51;16.88;;;7.68;;
24407;SDS011;12542;50.924;4.516;2023-03-03T14:14:39;22.52;;;9.73;;
24407;SDS011;12542;50.924;4.516;2023-03-03T14:17:21;22.05;;;10.20;;
24407;SDS011;12542;50.924;4.516;2023-03-03T14:22:56;23.58;;;11.18;;
24407;SDS011;12542;50.924;4.516;2023-03-03T14:25:50;23.42;;;11.45;;
24407;SDS011;12542;50.924;4.516;2023-03-03T14:28:36;24.10;;;11.00;;
24407;SDS011;12542;50.924;4.516;2023-03-03T14:31:27;25.80;;;9.90;;
24407;SDS011;12542;50.924;4.516;2023-03-03T14:34:04;18.73;;;9.13;;
24407;SDS011;12542;50.924;4.516;2023-03-03T14:36:40;21.63;;;9.45;;
24407;SDS011;12542;50.924;4.516;2023-03-03T14:41:48;17.52;;;8.90;;
24407;SDS011;12542;50.924;4.516;2023-03-03T14:49:29;17.55;;;8.23;;
24407;SDS011;12542;50.924;4.516;2023-03-03T14:52:02;25.90;;;11.75;;
24407;SDS011;12542;50.924;4.516;2023-03-03T14:54:48;18.83;;;7.97;;
24407;SDS011;12542;50.924;4.516;2023-03-03T14:57:19;21.85;;;9.43;;
24407;SDS011;12542;50.924;4.516;2023-03-03T15:05:23;17.75;;;7.70;;
24407;SDS011;12542;50.924;4.516;2023-03-03T15:13:08;12.82;;;6.53;;
24407;SDS011;12542;50.924;4.516;2023-03-03T15:18:28;21.17;;;7.90;;
24407;SDS011;12542;50.924;4.516;2023-03-03T15:26:25;17.42;;;9.20;;
24407;SDS011;12542;50.924;4.516;2023-03-03T15:29:32;17.33;;;8.68;;
24407;SDS011;12542;50.924;4.516;2023-03-03T15:32:03;15.23;;;7.20;;
24407;SDS011;12542;50.924;4.516;2023-03-03T15:34:52;14.55;;;7.93;;
24407;SDS011;12542;50.924;4.516;2023-03-03T15:40:46;15.52;;;6.93;;
24407;SDS011;12542;50.924;4.516;2023-03-03T15:43:36;13.82;;;7.20;;
24407;SDS011;12542;50.924;4.516;2023-03-03T15:51:38;12.10;;;6.28;;
24407;SDS011;12542;50.924;4.516;2023-03-03T15:54:20;12.68;;;6.05;;
24407;SDS011;12542;50.924;4.516;2023-03-03T16:06:06;12.25;;;5.65;;
24407;SDS011;12542;50.924;4.516;2023-03-03T16:08:43;11.50;;;6.53;;
24407;SDS011;12542;50.924;4.516;2023-03-03T16:11:14;9.95;;;5.78;;
24407;SDS011;12542;50.924;4.516;2023-03-03T16:17:07;9.70;;;5.90;;
24407;SDS011;12542;50.924;4.516;2023-03-03T16:30:51;10.48;;;5.90;;
24407;SDS011;12542;50.924;4.516;2023-03-03T16:33:30;11.98;;;6.07;;
24407;SDS011;12542;50.924;4.516;2023-03-03T16:41:14;10.65;;;5.57;;
24407;SDS011;12542;50.924;4.516;2023-03-03T16:51:50;11.68;;;5.82;;
24407;SDS011;12542;50.924;4.516;2023-03-03T16:54:38;9.48;;;5.78;;
24407;SDS011;12542;50.924;4.516;2023-03-03T16:57:52;10.88;;;6.15;;
24407;SDS011;12542;50.924;4.516;2023-03-03T17:00:29;10.90;;;6.22;;
24407;SDS011;12542;50.924;4.516;2023-03-03T17:06:04;10.48;;;5.82;;
24407;SDS011;12542;50.924;4.516;2023-03-03T17:17:03;12.73;;;7.00;;
24407;SDS011;12542;50.924;4.516;2023-03-03T17:31:19;9.80;;;5.78;;
24407;SDS011;12542;50.924;4.516;2023-03-03T17:39:11;10.40;;;5.47;;
24407;SDS011;12542;50.924;4.516;2023-03-03T17:41:47;9.70;;;5.40;;
24407;SDS011;12542;50.924;4.516;2023-03-03T17:44:23;9.60;;;5.60;;
24407;SDS011;12542;50.924;4.516;2023-03-03T17:47:12;9.77;;;5.75;;
24407;SDS011;12542;50.924;4.516;2023-03-03T18:10:26;11.82;;;6.50;;
24407;SDS011;12542;50.924;4.516;2023-03-03T18:13:54;11.70;;;6.55;;
24407;SDS011;12542;50.924;4.516;2023-03-03T18:27:46;11.63;;;5.93;;
24407;SDS011;12542;50.924;4.516;2023-03-03T18:30:49;11.10;;;6.95;;
24407;SDS011;12542;50.924;4.516;2023-03-03T18:36:13;12.68;;;7.20;;
24407;SDS011;12542;50.924;4.516;2023-03-03T18:38:39;15.30;;;6.97;;
24407;SDS011;12542;50.924;4.516;2023-03-03T18:41:20;11.73;;;7.07;;
24407;SDS011;12542;50.924;4.516;2023-03-03T18:43:51;13.77;;;6.47;;
24407;SDS011;12542;50.924;4.516;2023-03-03T18:59:40;14.02;;;8.40;;
24407;SDS011;12542;50.924;4.516;2023-03-03T19:13:40;128.43;;;58.20;;
24407;SDS011;12542;50.924;4.516;2023-03-03T19:16:45;87.00;;;38.45;;
24407;SDS011;12542;50.924;4.516;2023-03-03T19:19:19;84.55;;;38.20;;
24407;SDS011;12542;50.924;4.516;2023-03-03T19:27:50;15.30;;;7.90;;
24407;SDS011;12542;50.924;4.516;2023-03-03T19:52:16;10.40;;;6.30;;
24407;SDS011;12542;50.924;4.516;2023-03-03T20:08:17;9.52;;;5.28;;
24407;SDS011;12542;50.924;4.516;2023-03-03T20:10:53;7.95;;;5.82;;
24407;SDS011;12542;50.924;4.516;2023-03-03T20:13:28;9.75;;;5.57;;
24407;SDS011;12542;50.924;4.516;2023-03-03T20:19:14;13.95;;;6.70;;
24407;SDS011;12542;50.924;4.516;2023-03-03T20:43:33;23.85;;;15.27;;
24407;SDS011;12542;50.924;4.516;2023-03-03T20:51:57;8.50;;;6.90;;
24407;SDS011;12542;50.924;4.516;2023-03-03T20:54:45;11.40;;;6.53;;
24407;SDS011;12542;50.924;4.516;2023-03-03T21:08:17;14.93;;;13.50;;
24407;SDS011;12542;50.924;4.516;2023-03-03T21:10:55;17.60;;;15.75;;
24407;SDS011;12542;50.924;4.516;2023-03-03T21:13:35;12.77;;;8.50;;
24407;SDS011;12542;50.924;4.516;2023-03-03T21:18:37;12.77;;;8.98;;
24407;SDS011;12542;50.924;4.516;2023-03-03T21:21:04;11.15;;;8.57;;
24407;SDS011;12542;50.924;4.516;2023-03-03T21:23:39;11.65;;;9.07;;
24407;SDS011;12542;50.924;4.516;2023-03-03T21:26:07;16.13;;;8.70;;
24407;SDS011;12542;50.924;4.516;2023-03-03T21:28:33;11.48;;;9.10;;
24407;SDS011;12542;50.924;4.516;2023-03-03T21:31:00;12.52;;;8.85;;
24407;SDS011;12542;50.924;4.516;2023-03-03T21:33:53;16.08;;;9.88;;
24407;SDS011;12542;50.924;4.516;2023-03-03T21:42:28;28.48;;;23.23;;
24407;SDS011;12542;50.924;4.516;2023-03-03T21:45:13;12.63;;;10.15;;
24407;SDS011;12542;50.924;4.516;2023-03-03T21:47:40;12.40;;;10.27;;
24407;SDS011;12542;50.924;4.516;2023-03-03T21:50:06;15.95;;;10.13;;
24407;SDS011;12542;50.924;4.516;2023-03-03T21:52:33;12.85;;;10.75;;
24407;SDS011;12542;50.924;4.516;2023-03-03T21:54:58;27.05;;;21.23;;
24407;SDS011;12542;50.924;4.516;2023-03-03T21:57:27;12.90;;;10.75;;
24407;SDS011;12542;50.924;4.516;2023-03-03T21:59:52;13.70;;;11.02;;
24407;SDS011;12542;50.924;4.516;2023-03-03T22:02:18;15.10;;;11.25;;
24407;SDS011;12542;50.924;4.516;2023-03-03T22:04:47;12.77;;;10.30;;
24407;SDS011;12542;50.924;4.516;2023-03-03T22:07:13;14.35;;;10.65;;
24407;SDS011;12542;50.924;4.516;2023-03-03T22:09:38;21.08;;;10.93;;
24407;SDS011;12542;50.924;4.516;2023-03-03T22:12:25;13.77;;;9.98;;
24407;SDS011;12542;50.924;4.516;2023-03-03T22:14:51;14.35;;;10.63;;
24407;SDS011;12542;50.924;4.516;2023-03-03T22:17:18;15.68;;;11.02;;
24407;SDS011;12542;50.924;4.516;2023-03-03T22:19:44;16.42;;;10.80;;
24407;SDS011;12542;50.924;4.516;2023-03-03T22:22:10;25.65;;;12.35;;
24407;SDS011;12542;50.924;4.516;2023-03-03T22:24:36;18.60;;;11.45;;
24407;SDS011;12542;50.924;4.516;2023-03-03T22:27:01;14.52;;;10.68;;
24407;SDS011;12542;50.924;4.516;2023-03-03T22:29:27;18.70;;;12.23;;
24407;SDS011;12542;50.924;4.516;2023-03-03T22:31:53;10.90;;;9.13;;
24407;SDS011;12542;50.924;4.516;2023-03-03T22:34:19;13.05;;;9.43;;
24407;SDS011;12542;50.924;4.516;2023-03-03T22:36:44;12.68;;;7.95;;
24407;SDS011;12542;50.924;4.516;2023-03-03T22:39:10;13.43;;;10.13;;
24407;SDS011;12542;50.924;4.516;2023-03-03T22:41:36;11.43;;;8.13;;
24407;SDS011;12542;50.924;4.516;2023-03-03T22:44:04;12.52;;;8.77;;
24407;SDS011;12542;50.924;4.516;2023-03-03T22:46:32;13.32;;;8.45;;